createdAt,value
2022-12-15T00:02:00.482Z,92.10
2022-12-15T00:04:47.204Z,91.72
2022-12-15T00:07:33.924Z,91.71
2022-12-15T00:10:20.508Z,92.02
2022-12-15T00:13:06.736Z,92.08
2022-12-15T00:15:53.365Z,91.66
2022-12-15T00:18:39.706Z,92.26
2022-12-15T00:21:26.408Z,92.30
2022-12-15T00:24:12.858Z,92.24
2022-12-15T00:26:59.614Z,92.96
2022-12-15T00:29:46.051Z,92.52
2022-12-15T00:32:32.700Z,91.95
2022-12-15T00:35:18.758Z,91.98
2022-12-15T00:38:05.362Z,92.08
2022-12-15T00:40:32.936Z,92.11
2022-12-15T00:43:00.894Z,91.67
2022-12-15T00:45:48.534Z,91.63
2022-12-15T00:48:16.354Z,91.19
2022-12-15T00:50:53.363Z,90.94
2022-12-15T00:53:42.197Z,90.78
2022-12-15T00:56:28.800Z,90.73
2022-12-15T00:59:15.457Z,90.49
2022-12-15T01:02:02.179Z,90.68
2022-12-15T01:04:49.085Z,90.02
2022-12-15T01:07:35.429Z,90.35
2022-12-15T01:10:22.686Z,90.19
2022-12-15T01:13:08.957Z,90.26
2022-12-15T01:15:55.898Z,89.38
2022-12-15T01:18:43.343Z,89.28
2022-12-15T01:21:17.721Z,89.78
2022-12-15T01:23:45.488Z,89.58
2022-12-15T01:26:13.775Z,89.15
2022-12-15T01:28:41.427Z,88.85
2022-12-15T01:31:12.979Z,89.23
2022-12-15T01:33:42.773Z,89.20
2022-12-15T01:36:12.128Z,88.93
2022-12-15T01:38:39.802Z,89.06
2022-12-15T01:41:11.259Z,88.91
2022-12-15T01:43:40.977Z,89.02
2022-12-15T01:46:16.063Z,89.02
2022-12-15T01:49:11.256Z,88.95
2022-12-15T01:51:50.088Z,89.35
2022-12-15T01:54:23.603Z,88.64
2022-12-15T01:57:00.968Z,88.62
2022-12-15T01:59:36.051Z,88.55
2022-12-15T02:02:04.442Z,89.07
2022-12-15T02:04:33.696Z,89.00
2022-12-15T02:07:01.556Z,89.18
2022-12-15T02:09:30.220Z,89.29
2022-12-15T02:12:28.775Z,89.47
2022-12-15T02:15:14.283Z,89.72
2022-12-15T02:18:22.232Z,89.79
2022-12-15T02:20:52.809Z,89.87
2022-12-15T02:23:59.902Z,89.98
2022-12-15T02:27:01.164Z,89.99
2022-12-15T02:30:09.513Z,90.00
2022-12-15T02:33:16.124Z,90.16
2022-12-15T02:35:50.460Z,90.00
2022-12-15T02:38:36.612Z,90.05
2022-12-15T02:41:06.739Z,89.87
2022-12-15T02:43:38.922Z,89.80
2022-12-15T02:46:38.270Z,89.50
2022-12-15T02:49:46.815Z,88.99
2022-12-15T02:52:38.666Z,88.52
2022-12-15T02:55:39.232Z,88.93
2022-12-15T02:58:45.344Z,88.72
2022-12-15T03:01:34.830Z,88.86
2022-12-15T03:04:06.268Z,88.50
2022-12-15T03:06:33.968Z,88.54
2022-12-15T03:09:01.915Z,87.94
2022-12-15T03:11:29.509Z,87.95
2022-12-15T03:13:58.651Z,87.77
2022-12-15T03:16:26.309Z,87.82
2022-12-15T03:18:54.905Z,87.52
2022-12-15T03:21:22.509Z,87.78
2022-12-15T03:23:50.382Z,87.45
2022-12-15T03:26:18.047Z,87.06
2022-12-15T03:28:45.888Z,87.15
2022-12-15T03:31:13.670Z,87.02
2022-12-15T03:33:41.685Z,87.33
2022-12-15T03:36:09.747Z,87.27
2022-12-15T03:38:37.584Z,87.29
2022-12-15T03:41:05.315Z,87.61
2022-12-15T03:43:33.746Z,87.28
2022-12-15T03:46:01.960Z,86.98
2022-12-15T03:48:29.911Z,86.52
2022-12-15T03:53:25.776Z,86.62
2022-12-15T03:55:53.536Z,86.46
2022-12-15T03:58:21.479Z,86.39
2022-12-15T04:00:49.112Z,85.87
2022-12-15T04:03:17.002Z,85.64
2022-12-15T04:05:44.695Z,85.39
2022-12-15T04:08:13.022Z,84.94
2022-12-15T04:10:40.690Z,85.06
2022-12-15T04:13:12.185Z,85.52
2022-12-15T04:15:40.900Z,85.25
2022-12-15T04:18:10.969Z,85.48
2022-12-15T04:20:40.685Z,85.61
2022-12-15T04:23:08.882Z,85.75
2022-12-15T04:25:55.919Z,85.46
2022-12-15T04:28:42.741Z,85.34
2022-12-15T04:31:33.789Z,85.52
2022-12-15T04:34:25.049Z,86.04
2022-12-15T04:37:13.414Z,85.62
2022-12-15T04:40:07.896Z,86.22
2022-12-15T04:42:59.082Z,86.31
2022-12-15T04:45:45.967Z,86.83
2022-12-15T04:48:33.039Z,86.86
2022-12-15T04:51:20.644Z,86.73
2022-12-15T04:54:08.304Z,86.79
2022-12-15T04:56:54.906Z,86.64
2022-12-15T04:59:41.088Z,86.18
2022-12-15T05:02:27.705Z,86.00
2022-12-15T05:05:14.205Z,85.54
2022-12-15T05:08:00.866Z,85.44
2022-12-15T05:10:47.684Z,84.94
2022-12-15T05:13:35.300Z,85.22
2022-12-15T05:16:23.654Z,85.07
2022-12-15T05:19:10.236Z,84.67
2022-12-15T05:21:56.338Z,84.83
2022-12-15T05:24:42.822Z,84.78
2022-12-15T05:27:34.351Z,84.47
2022-12-15T05:30:20.626Z,84.64
2022-12-15T05:32:48.280Z,84.98
2022-12-15T05:35:18.182Z,84.91
2022-12-15T05:37:45.727Z,84.54
2022-12-15T05:40:13.747Z,84.55
2022-12-15T05:42:41.365Z,84.82
2022-12-15T05:45:10.353Z,84.65
2022-12-15T05:47:37.910Z,84.76
2022-12-15T05:50:06.537Z,84.60
2022-12-15T05:52:35.039Z,84.54
2022-12-15T05:55:06.781Z,84.62
2022-12-15T05:57:35.053Z,84.80
2022-12-15T06:00:06.303Z,84.88
2022-12-15T06:02:39.245Z,84.82
2022-12-15T06:05:08.157Z,84.79
2022-12-15T06:07:37.414Z,85.08
2022-12-15T06:10:05.832Z,84.74
2022-12-15T06:12:33.343Z,85.04
2022-12-15T06:15:01.321Z,85.26
2022-12-15T06:17:28.897Z,85.00
2022-12-15T06:19:56.769Z,84.93
2022-12-15T06:22:24.312Z,84.27
2022-12-15T06:24:52.554Z,84.68
2022-12-15T06:27:20.478Z,84.67
2022-12-15T06:29:48.355Z,85.32
2022-12-15T06:32:15.963Z,85.20
2022-12-15T06:34:44.036Z,85.13
2022-12-15T06:37:11.807Z,85.29
2022-12-15T06:39:39.989Z,85.13
2022-12-15T06:42:07.645Z,85.40
2022-12-15T06:44:35.766Z,85.67
2022-12-15T06:47:03.991Z,85.46
2022-12-15T06:49:32.173Z,85.53
2022-12-15T06:52:18.803Z,85.31
2022-12-15T06:54:46.786Z,85.82
2022-12-15T06:57:14.312Z,85.15
2022-12-15T06:59:42.361Z,84.96
2022-12-15T07:02:23.725Z,85.32
2022-12-15T07:04:54.807Z,85.15
2022-12-15T07:07:22.572Z,85.35
2022-12-15T07:09:50.513Z,85.25
2022-12-15T07:12:18.399Z,85.09
2022-12-15T07:14:51.557Z,85.73
2022-12-15T07:17:20.882Z,85.57
2022-12-15T07:19:48.644Z,85.79
2022-12-15T07:22:16.240Z,85.74
2022-12-15T07:24:44.197Z,85.09
2022-12-15T07:27:11.658Z,85.26
2022-12-15T07:29:39.659Z,85.75
2022-12-15T07:32:07.348Z,85.47
2022-12-15T07:34:35.299Z,85.78
2022-12-15T07:37:03.824Z,85.49
2022-12-15T07:39:31.925Z,86.04
2022-12-15T07:41:59.873Z,86.07
2022-12-15T07:44:32.067Z,86.25
2022-12-15T07:46:59.861Z,85.88
2022-12-15T07:49:27.775Z,85.62
2022-12-15T07:51:58.505Z,85.68
2022-12-15T07:54:26.489Z,85.66
2022-12-15T07:56:53.975Z,86.29
2022-12-15T07:59:21.912Z,86.22
2022-12-15T08:01:50.138Z,86.20
2022-12-15T08:04:18.733Z,86.38
2022-12-15T08:06:46.283Z,86.46
2022-12-15T08:09:16.685Z,86.65
2022-12-15T08:11:44.285Z,86.56
2022-12-15T08:14:17.254Z,86.19
2022-12-15T08:16:46.723Z,86.60
2022-12-15T08:19:17.006Z,86.06
2022-12-15T08:21:46.877Z,87.02
2022-12-15T08:24:15.608Z,86.73
2022-12-15T08:26:44.333Z,86.81
2022-12-15T08:29:49.428Z,86.39
2022-12-15T08:32:08.039Z,85.20
2022-12-15T08:34:38.105Z,85.00
2022-12-15T08:37:05.668Z,84.93
2022-12-15T08:39:33.778Z,84.83
2022-12-15T08:42:01.438Z,85.28
2022-12-15T08:44:29.571Z,85.36
2022-12-15T08:46:57.226Z,85.33
2022-12-15T08:49:25.872Z,85.53
2022-12-15T08:51:53.748Z,85.48
2022-12-15T08:54:21.775Z,85.74
2022-12-15T08:56:49.708Z,85.67
2022-12-15T08:59:17.644Z,85.33
2022-12-15T09:01:45.297Z,85.20
2022-12-15T09:04:13.464Z,85.19
2022-12-15T09:06:41.844Z,85.73
2022-12-15T09:09:12.944Z,85.45
2022-12-15T09:11:40.823Z,86.29
2022-12-15T09:14:09.008Z,85.69
2022-12-15T09:16:36.777Z,85.63
2022-12-15T09:19:33.596Z,85.44
2022-12-15T09:22:20.196Z,85.60
2022-12-15T09:24:49.258Z,84.71
2022-12-15T09:27:16.846Z,84.80
2022-12-15T09:29:44.751Z,84.51
2022-12-15T09:32:14.548Z,84.86
2022-12-15T09:34:42.884Z,84.91
2022-12-15T09:37:10.440Z,84.33
2022-12-15T09:39:39.209Z,84.03
2022-12-15T09:42:23.599Z,83.67
2022-12-15T09:45:15.170Z,83.44
2022-12-15T09:48:17.469Z,84.45
2022-12-15T09:50:50.992Z,83.79
2022-12-15T09:53:56.469Z,83.99
2022-12-15T09:56:42.922Z,84.21
2022-12-15T09:59:26.678Z,83.87
2022-12-15T10:02:10.310Z,83.46
2022-12-15T10:04:53.117Z,83.19
2022-12-15T10:07:43.897Z,82.86
2022-12-15T10:10:56.168Z,83.12
2022-12-15T10:13:50.417Z,82.73
2022-12-15T10:16:33.094Z,82.51
2022-12-15T10:19:13.468Z,81.76
2022-12-15T10:21:42.535Z,82.49
2022-12-15T10:24:44.242Z,81.33
2022-12-15T10:27:17.295Z,81.63
2022-12-15T10:29:51.888Z,81.66
2022-12-15T10:32:32.071Z,81.82
2022-12-15T10:35:00.206Z,81.89
2022-12-15T10:37:27.759Z,81.17
2022-12-15T10:39:55.652Z,81.59
2022-12-15T10:42:26.569Z,81.16
2022-12-15T10:44:57.730Z,80.99
2022-12-15T10:47:29.454Z,81.05
2022-12-15T10:50:24.782Z,81.58
2022-12-15T10:52:52.923Z,80.51
2022-12-15T10:55:40.122Z,81.04
2022-12-15T10:58:23.683Z,80.75
2022-12-15T11:01:08.942Z,80.60
2022-12-15T11:03:39.743Z,80.21
2022-12-15T11:06:26.267Z,79.17
2022-12-15T11:08:57.262Z,78.45
2022-12-15T11:11:51.485Z,78.74
2022-12-15T11:14:29.441Z,79.06
2022-12-15T11:16:59.522Z,79.55
2022-12-15T11:19:44.453Z,78.36
2022-12-15T11:22:45.731Z,77.27
2022-12-15T11:25:35.249Z,77.09
2022-12-15T11:28:11.426Z,76.43
2022-12-15T11:30:55.856Z,75.40
2022-12-15T11:33:23.823Z,74.53
2022-12-15T11:36:19.404Z,74.93
2022-12-15T11:38:53.170Z,73.45
2022-12-15T11:41:50.934Z,73.95
2022-12-15T11:44:40.345Z,72.86
2022-12-15T11:47:34.009Z,71.52
2022-12-15T11:50:37.090Z,71.74
2022-12-15T11:53:54.314Z,72.77
2022-12-15T11:56:37.263Z,72.07
2022-12-15T11:59:38.920Z,72.19
2022-12-15T12:02:33.863Z,71.45
2022-12-15T12:05:55.283Z,70.71
2022-12-15T12:08:41.450Z,69.76
2022-12-15T12:11:30.897Z,67.58
2022-12-15T12:14:32.307Z,66.71
2022-12-15T12:17:32.892Z,65.38
2022-12-15T12:20:14.144Z,64.69
2022-12-15T12:23:05.746Z,63.91
2022-12-15T12:26:03.779Z,62.24
2022-12-15T12:28:59.116Z,61.67
2022-12-15T12:34:51.146Z,60.24
2022-12-15T12:37:24.352Z,58.52
2022-12-15T12:40:03.805Z,58.21
2022-12-15T12:42:53.715Z,57.39
2022-12-15T12:45:32.680Z,56.52
2022-12-15T12:48:13.008Z,55.82
2022-12-15T12:50:40.955Z,55.17
2022-12-15T12:53:35.120Z,55.22
2022-12-15T12:56:03.772Z,53.94
2022-12-15T12:58:39.761Z,53.86
2022-12-15T13:01:33.374Z,54.25
2022-12-15T13:04:10.963Z,52.54
2022-12-15T13:06:41.615Z,51.91
2022-12-15T13:09:19.038Z,51.04
2022-12-15T13:11:51.110Z,50.91
2022-12-15T13:14:40.772Z,50.61
2022-12-15T13:17:38.905Z,50.19
2022-12-15T13:20:32.258Z,49.55
2022-12-15T13:23:21.725Z,49.24
2022-12-15T13:25:59.042Z,49.69
2022-12-15T13:28:44.381Z,50.09
2022-12-15T13:31:20.853Z,50.21
2022-12-15T13:33:56.471Z,51.71
2022-12-15T13:36:47.007Z,52.81
2022-12-15T13:39:20.233Z,53.72
2022-12-15T13:42:23.657Z,54.66
2022-12-15T13:44:45.352Z,55.92
2022-12-15T13:47:22.626Z,56.98
2022-12-15T13:50:02.253Z,58.18
2022-12-15T13:53:17.018Z,59.98
2022-12-15T13:55:46.280Z,61.53
2022-12-15T13:58:22.446Z,62.60
2022-12-15T14:00:56.882Z,63.67
2022-12-15T14:03:25.013Z,64.27
2022-12-15T14:05:56.542Z,65.42
2022-12-15T14:08:28.636Z,66.21
2022-12-15T14:11:00.209Z,66.89
2022-12-15T14:13:36.535Z,68.09
2022-12-15T14:16:22.061Z,69.36
2022-12-15T14:19:17.682Z,70.30
2022-12-15T14:22:01.498Z,71.67
2022-12-15T14:24:41.910Z,72.27
2022-12-15T14:27:09.803Z,73.32
2022-12-15T14:29:37.971Z,74.09
2022-12-15T14:32:06.378Z,74.75
2022-12-15T14:34:38.990Z,75.61
2022-12-15T14:37:17.604Z,76.67
2022-12-15T14:42:39.470Z,77.67
2022-12-15T14:45:28.414Z,78.63
2022-12-15T14:51:01.148Z,80.06
2022-12-15T14:53:40.433Z,80.70
2022-12-15T14:56:25.922Z,81.20
2022-12-15T14:59:04.361Z,82.59
2022-12-15T15:02:02.334Z,83.51
2022-12-15T15:03:12.732Z,60.89
2022-12-15T15:03:14.381Z,77.12
2022-12-15T15:04:35.045Z,84.24
2022-12-15T15:07:07.592Z,84.94
2022-12-15T15:09:44.301Z,85.27
2022-12-15T15:12:21.548Z,86.52
2022-12-15T15:15:06.002Z,86.37
2022-12-15T15:17:44.120Z,87.36
2022-12-15T15:20:39.021Z,88.06
2022-12-15T15:23:20.070Z,88.48
2022-12-15T15:25:54.451Z,88.79
2022-12-15T15:28:38.379Z,89.13
2022-12-15T15:31:24.678Z,89.77
2022-12-15T15:33:53.886Z,90.44
2022-12-15T15:36:22.884Z,89.87
2022-12-15T15:38:52.263Z,90.19
2022-12-15T15:41:22.209Z,90.19
2022-12-15T15:43:50.611Z,90.85
2022-12-15T15:46:31.054Z,90.73
2022-12-15T15:49:13.408Z,91.40
2022-12-15T15:51:40.917Z,91.29
2022-12-15T15:54:16.545Z,91.78
2022-12-15T15:56:44.157Z,92.12
2022-12-15T15:59:19.868Z,92.56
2022-12-15T16:01:54.882Z,92.50
2022-12-15T16:04:24.587Z,92.62
2022-12-15T16:06:53.438Z,93.03
2022-12-15T16:09:21.672Z,93.21
2022-12-15T16:11:49.268Z,93.35
2022-12-15T16:14:18.032Z,93.59
2022-12-15T16:16:45.893Z,92.94
2022-12-15T16:19:13.898Z,92.95
2022-12-15T16:21:42.968Z,93.22
2022-12-15T16:24:17.763Z,93.00
2022-12-15T16:26:49.831Z,93.63
2022-12-15T16:29:20.980Z,93.54
2022-12-15T16:31:49.182Z,93.06
2022-12-15T16:34:17.744Z,92.93
2022-12-15T16:36:45.960Z,93.20
2022-12-15T16:39:31.304Z,93.20
2022-12-15T16:41:59.991Z,93.38
2022-12-15T16:44:29.608Z,93.09
2022-12-15T16:46:59.069Z,92.68
2022-12-15T16:49:27.968Z,92.44
2022-12-15T16:51:56.224Z,91.97
2022-12-15T16:54:27.800Z,92.20
2022-12-15T16:56:58.402Z,92.71
2022-12-15T16:59:35.625Z,91.88
2022-12-15T17:02:38.759Z,92.41
2022-12-15T17:05:07.625Z,91.91
2022-12-15T17:07:35.892Z,91.88
2022-12-15T17:10:04.760Z,91.49
2022-12-15T17:12:32.988Z,91.54
2022-12-15T17:15:02.621Z,91.41
2022-12-15T17:17:31.048Z,91.97
2022-12-15T17:20:27.926Z,91.88
2022-12-15T17:22:54.993Z,92.52
2022-12-15T17:25:53.312Z,91.78
2022-12-15T17:28:20.327Z,92.04
2022-12-15T17:30:49.044Z,92.13
2022-12-15T17:33:26.920Z,92.15
2022-12-15T17:36:02.426Z,92.24
2022-12-15T17:38:30.332Z,92.51
2022-12-15T17:40:58.261Z,92.34
2022-12-15T17:43:33.655Z,92.84
2022-12-15T17:46:03.414Z,92.97
2022-12-15T17:48:31.773Z,93.05
2022-12-15T17:50:59.925Z,92.76
2022-12-15T17:53:29.376Z,92.75
2022-12-15T17:55:57.628Z,93.54
2022-12-15T17:58:27.460Z,93.22
2022-12-15T18:00:56.736Z,93.81
2022-12-15T18:03:24.904Z,93.36
2022-12-15T18:05:53.884Z,93.64
2022-12-15T18:08:27.949Z,93.66
2022-12-15T18:10:58.048Z,94.08
2022-12-15T18:13:35.365Z,94.84
2022-12-15T18:16:03.861Z,95.04
2022-12-15T18:18:31.965Z,95.14
2022-12-15T18:21:08.029Z,95.19
2022-12-15T18:23:37.827Z,95.86
2022-12-15T18:26:06.038Z,95.55
2022-12-15T18:28:36.440Z,95.20
2022-12-15T18:31:29.721Z,95.80
2022-12-15T18:34:04.337Z,95.79
2022-12-15T18:36:32.380Z,96.16
2022-12-15T18:39:13.543Z,96.01
2022-12-15T18:41:43.966Z,96.38
2022-12-15T18:44:32.590Z,97.34
2022-12-15T18:47:01.059Z,97.85
2022-12-15T18:49:29.607Z,98.13
2022-12-15T18:51:57.756Z,97.97
2022-12-15T18:54:26.970Z,97.77
2022-12-15T18:56:55.613Z,97.47
2022-12-15T18:59:24.218Z,97.85
2022-12-15T19:01:52.741Z,97.96
2022-12-15T19:04:21.672Z,97.89
2022-12-15T19:06:51.203Z,97.27
2022-12-15T19:09:23.348Z,98.01
2022-12-15T19:12:10.078Z,98.10
2022-12-15T19:14:41.844Z,98.20
2022-12-15T19:17:35.170Z,98.33
2022-12-15T19:20:38.828Z,98.01
2022-12-15T19:23:07.453Z,98.12
2022-12-15T19:25:35.916Z,98.39
2022-12-15T19:28:04.251Z,97.93
2022-12-15T19:30:38.615Z,97.85
2022-12-15T19:33:14.671Z,97.32
2022-12-15T19:35:47.030Z,97.81
2022-12-15T19:38:27.448Z,97.29
2022-12-15T19:40:56.597Z,96.84
2022-12-15T19:43:25.646Z,97.01
2022-12-15T19:45:53.916Z,96.75
2022-12-15T19:48:23.982Z,96.84
2022-12-15T19:50:54.838Z,97.28
2022-12-15T19:53:30.063Z,96.92
2022-12-15T19:56:01.468Z,97.04
2022-12-15T19:58:32.573Z,96.33
2022-12-15T20:01:06.029Z,96.30
2022-12-15T20:03:35.213Z,96.09
2022-12-15T20:06:04.660Z,95.88
2022-12-15T20:08:41.760Z,95.96
2022-12-15T20:11:20.466Z,96.42
2022-12-15T20:13:50.226Z,96.29
2022-12-15T20:16:19.453Z,95.44
2022-12-15T20:18:55.449Z,96.06
2022-12-15T20:21:28.792Z,95.42
2022-12-15T20:24:02.302Z,95.05
2022-12-15T20:26:31.201Z,93.51
2022-12-15T20:28:58.828Z,91.91
2022-12-15T20:31:27.391Z,90.61
2022-12-15T20:33:55.126Z,90.08
2022-12-15T20:36:28.193Z,89.12
2022-12-15T20:38:57.009Z,88.71
2022-12-15T20:41:29.717Z,89.22
2022-12-15T20:43:58.958Z,88.97
2022-12-15T20:46:32.916Z,88.58
2022-12-15T20:49:00.687Z,88.60
2022-12-15T20:51:32.585Z,89.01
2022-12-15T20:54:03.466Z,88.08
2022-12-15T20:56:31.377Z,86.92
2022-12-15T20:58:59.232Z,85.69
2022-12-15T21:01:32.892Z,85.87
2022-12-15T21:04:04.648Z,86.05
2022-12-15T21:06:32.472Z,86.80
2022-12-15T21:09:00.044Z,87.45
2022-12-15T21:11:32.554Z,88.34
2022-12-15T21:14:04.282Z,88.49
2022-12-15T21:16:33.152Z,89.24
2022-12-15T21:19:22.400Z,89.92
2022-12-15T21:21:55.173Z,90.64
2022-12-15T21:24:28.667Z,91.11
2022-12-15T21:26:56.829Z,91.57
2022-12-15T21:29:27.848Z,92.05
2022-12-15T21:31:55.730Z,92.92
2022-12-15T21:34:23.417Z,93.14
2022-12-15T21:36:55.338Z,93.38
2022-12-15T21:39:34.126Z,93.31
2022-12-15T21:42:13.948Z,94.12
2022-12-15T21:44:42.727Z,94.46
2022-12-15T21:47:52.100Z,94.98
2022-12-15T21:50:20.105Z,95.23
2022-12-15T21:52:48.542Z,95.82
2022-12-15T21:55:22.666Z,96.37
2022-12-15T21:57:50.629Z,96.43
2022-12-15T22:00:21.232Z,96.74
2022-12-15T22:02:52.568Z,97.53
2022-12-15T22:05:32.567Z,97.47
2022-12-15T22:08:19.925Z,97.37
2022-12-15T22:10:50.352Z,97.18
2022-12-15T22:13:22.922Z,97.79
2022-12-15T22:15:51.670Z,97.54
2022-12-15T22:18:19.996Z,97.32
2022-12-15T22:20:52.382Z,97.22
2022-12-15T22:23:20.810Z,97.11
2022-12-15T22:25:54.203Z,97.05
2022-12-15T22:28:25.960Z,96.88
2022-12-15T22:30:56.020Z,96.67
2022-12-15T22:33:26.147Z,96.28
2022-12-15T22:35:56.210Z,96.15
2022-12-15T22:38:25.080Z,95.97
2022-12-15T22:40:56.525Z,96.34
2022-12-15T22:43:45.331Z,95.92
2022-12-15T22:46:15.255Z,95.65
2022-12-15T22:48:47.463Z,95.75
2022-12-15T22:51:17.471Z,95.55
2022-12-15T22:53:45.953Z,95.70
2022-12-15T22:56:30.792Z,96.04
2022-12-15T22:59:05.913Z,95.74
2022-12-15T23:01:33.911Z,95.44
2022-12-15T23:04:02.274Z,95.12
2022-12-15T23:06:29.836Z,95.04
2022-12-15T23:08:57.788Z,94.81
2022-12-15T23:11:37.708Z,95.26
2022-12-15T23:14:18.088Z,95.18
2022-12-15T23:16:46.637Z,95.11
2022-12-15T23:19:23.991Z,95.19
2022-12-15T23:21:52.181Z,95.22
2022-12-15T23:24:20.650Z,95.62
2022-12-15T23:26:48.133Z,95.21
2022-12-15T23:29:16.166Z,94.55
2022-12-15T23:31:43.654Z,94.41
2022-12-15T23:34:12.454Z,93.09
2022-12-15T23:36:40.132Z,91.95
2022-12-15T23:39:08.119Z,90.96
2022-12-15T23:41:36.033Z,91.13
2022-12-15T23:44:04.062Z,91.57
2022-12-15T23:46:31.757Z,91.41
2022-12-15T23:49:00.003Z,91.50
2022-12-15T23:51:27.666Z,91.81
2022-12-15T23:53:55.462Z,91.64
2022-12-15T23:56:24.505Z,91.82
2022-12-15T23:58:57.909Z,91.92
